Time;durP1;ratioP1;P1;durP2;ratioP2;P2;SDS_P1;SDS_P2;PMS_P1;PMS_P2;Temp;Humidity;BMP_temperature;BMP_pressure;BME280_temperature;BME280_humidity;BME280_pressure;Samples;Min_cycle;Max_cycle;Signal;HPM_P1;HPM_P2
2023/05/08 00:00:33;;;;;;;3.95;2.85;;;16.10;99.90;;;;;;5114374;28;20827;-63
2023/05/08 00:03:00;;;;;;;3.70;3.08;;;16.10;99.90;;;;;;5114722;28;20428;-63
2023/05/08 00:05:27;;;;;;;3.95;3.45;;;16.10;99.90;;;;;;5114337;28;20489;-63
2023/05/08 00:08:00;;;;;;;4.43;4.13;;;16.10;99.90;;;;;;5113396;28;20424;-64
2023/05/08 00:10:27;;;;;;;4.60;4.20;;;16.10;99.90;;;;;;5114034;28;20427;-64
2023/05/08 00:12:54;;;;;;;3.97;3.58;;;16.20;99.90;;;;;;5113437;28;20863;-63
2023/05/08 00:15:21;;;;;;;6.73;5.50;;;16.20;99.90;;;;;;5105546;28;20416;-63
2023/05/08 00:17:48;;;;;;;6.55;5.95;;;16.20;99.90;;;;;;5114369;28;20916;-63
2023/05/08 00:20:15;;;;;;;6.13;5.53;;;16.20;99.90;;;;;;5113587;28;20480;-63
2023/05/08 00:22:42;;;;;;;6.00;4.90;;;16.10;99.90;;;;;;5114719;28;20832;-63
2023/05/08 00:25:11;;;;;;;6.20;4.85;;;16.10;99.90;;;;;;5113992;28;20781;-63
2023/05/08 00:27:38;;;;;;;6.05;5.55;;;16.10;99.90;;;;;;5112915;28;20896;-63
2023/05/08 00:30:06;;;;;;;5.60;5.10;;;16.10;99.90;;;;;;5113435;28;20416;-63
2023/05/08 00:32:33;;;;;;;4.45;4.05;;;16.00;99.90;;;;;;5112818;28;20420;-63
2023/05/08 00:35:00;;;;;;;5.00;3.63;;;15.90;99.90;;;;;;5112522;28;20416;-63
2023/05/08 00:37:27;;;;;;;4.63;4.22;;;15.90;99.90;;;;;;5113341;28;20473;-63
2023/05/08 00:39:54;;;;;;;4.45;3.92;;;15.90;99.90;;;;;;5113919;28;20415;-63
2023/05/08 00:42:23;;;;;;;4.32;3.92;;;15.90;99.90;;;;;;5118330;28;20494;-63
2023/05/08 00:44:50;;;;;;;5.95;4.60;;;15.80;99.90;;;;;;5117877;28;20432;-63
2023/05/08 00:47:17;;;;;;;4.78;2.92;;;15.80;99.90;;;;;;5118343;28;20423;-63
2023/05/08 00:49:44;;;;;;;3.80;3.40;;;15.80;99.90;;;;;;5118349;28;20536;-63
2023/05/08 00:52:11;;;;;;;3.83;2.70;;;15.80;99.90;;;;;;5118144;28;20469;-63
2023/05/08 00:54:39;;;;;;;3.90;3.50;;;15.90;99.90;;;;;;5117923;28;20899;-62
2023/05/08 00:57:08;;;;;;;4.60;3.55;;;15.90;99.90;;;;;;5118008;28;20431;-63
2023/05/08 00:59:37;;;;;;;3.65;2.47;;;15.90;99.90;;;;;;5117131;28;20766;-63
2023/05/08 01:02:05;;;;;;;3.35;2.55;;;15.90;99.90;;;;;;5118048;28;20693;-63
2023/05/08 01:04:33;;;;;;;2.90;2.47;;;15.90;99.90;;;;;;5117878;28;20489;-63
2023/05/08 01:07:01;;;;;;;2.60;2.17;;;15.80;99.90;;;;;;5117945;28;20420;-63
2023/05/08 01:09:28;;;;;;;2.58;2.13;;;15.80;99.90;;;;;;5117672;28;20416;-62
2023/05/08 01:12:02;;;;;;;1.90;1.60;;;15.80;99.90;;;;;;5117519;28;20473;-62
2023/05/08 01:14:39;;;;;;;2.30;1.55;;;15.80;99.90;;;;;;5117444;28;20831;-62
2023/05/08 01:17:11;;;;;;;2.97;1.63;;;15.90;99.90;;;;;;5117821;28;20604;-62
2023/05/08 01:19:57;;;;;;;2.90;2.00;;;15.90;99.90;;;;;;5117180;28;20420;-62
2023/05/08 01:22:44;;;;;;;3.00;1.80;;;15.90;99.90;;;;;;5117854;28;20532;-62
2023/05/08 01:25:44;;;;;;;2.13;1.40;;;16.00;99.90;;;;;;5115945;28;20430;-62
2023/05/08 01:28:46;;;;;;;3.00;2.17;;;16.10;99.90;;;;;;5112706;28;20848;-63
2023/05/08 01:31:24;;;;;;;3.63;1.60;;;16.10;99.90;;;;;;5117851;28;20428;-63
2023/05/08 01:33:59;;;;;;;2.30;1.65;;;16.00;99.90;;;;;;5117836;28;20526;-62
2023/05/08 01:36:34;;;;;;;2.65;1.83;;;16.00;99.90;;;;;;5117178;28;20847;-62
2023/05/08 01:39:10;;;;;;;3.10;2.40;;;16.10;99.90;;;;;;5117753;28;20835;-63
2023/05/08 01:41:39;;;;;;;3.47;2.20;;;16.10;99.90;;;;;;5117411;28;20428;-64
2023/05/08 01:44:13;;;;;;;3.50;2.00;;;16.10;99.90;;;;;;5117138;28;20839;-62
2023/05/08 01:46:42;;;;;;;2.80;2.60;;;16.20;99.90;;;;;;5117096;28;20435;-61
2023/05/08 01:49:16;;;;;;;3.50;3.20;;;16.20;99.90;;;;;;5117228;28;20426;-61
2023/05/08 01:51:45;;;;;;;2.83;2.63;;;16.10;99.90;;;;;;5115774;28;20460;-62
2023/05/08 01:54:16;;;;;;;3.00;2.30;;;16.10;99.90;;;;;;5115371;28;20416;-63
2023/05/08 01:56:45;;;;;;;3.13;2.83;;;16.00;99.90;;;;;;5116128;28;20477;-63
2023/05/08 01:59:16;;;;;;;4.43;3.40;;;16.00;99.90;;;;;;5116079;28;20420;-63
2023/05/08 02:01:46;;;;;;;4.60;3.33;;;15.80;99.90;;;;;;5116026;28;20427;-62
2023/05/08 02:04:16;;;;;;;3.85;3.20;;;15.70;99.90;;;;;;5115690;28;20499;-63
2023/05/08 02:06:44;;;;;;;4.32;3.60;;;15.70;99.90;;;;;;5116000;28;20427;-63
2023/05/08 02:09:12;;;;;;;4.55;3.22;;;15.60;99.90;;;;;;5116860;28;20420;-63
2023/05/08 02:11:42;;;;;;;5.27;4.07;;;15.70;99.90;;;;;;5116568;28;20765;-62
2023/05/08 02:14:11;;;;;;;6.45;4.97;;;15.70;99.90;;;;;;5116104;28;20832;-62
2023/05/08 02:16:42;;;;;;;4.93;4.00;;;15.80;99.90;;;;;;5116023;28;20431;-62
2023/05/08 02:19:10;;;;;;;3.80;3.27;;;15.80;99.90;;;;;;5115881;28;20416;-63
2023/05/08 02:21:40;;;;;;;4.05;3.65;;;15.90;99.90;;;;;;5116164;28;20424;-63
2023/05/08 02:24:09;;;;;;;4.80;3.65;;;15.90;99.90;;;;;;5116316;28;20432;-63
2023/05/08 02:26:36;;;;;;;4.10;3.70;;;16.00;99.90;;;;;;5116826;28;20428;-63
2023/05/08 02:29:04;;;;;;;6.25;5.32;;;16.10;99.90;;;;;;5116301;28;20484;-63
2023/05/08 02:31:31;;;;;;;5.22;3.50;;;16.10;99.90;;;;;;5115927;28;20473;-62
2023/05/08 02:33:59;;;;;;;4.73;3.40;;;16.10;99.90;;;;;;5116452;28;20840;-62
2023/05/08 02:36:28;;;;;;;3.30;2.63;;;16.10;99.90;;;;;;5116041;28;20506;-62
2023/05/08 02:38:59;;;;;;;5.65;3.42;;;16.20;99.90;;;;;;5116088;28;20788;-62
2023/05/08 02:41:30;;;;;;;3.90;3.38;;;16.20;99.90;;;;;;5113644;28;20420;-62
2023/05/08 02:43:58;;;;;;;3.90;3.40;;;16.20;99.90;;;;;;5114740;28;20769;-63
2023/05/08 02:46:32;;;;;;;3.50;3.20;;;16.20;99.90;;;;;;5116189;28;20435;-63
2023/05/08 02:49:01;;;;;;;4.10;3.70;;;16.30;99.90;;;;;;5115661;28;20469;-62
2023/05/08 02:51:37;;;;;;;5.37;4.37;;;16.30;99.90;;;;;;5116351;28;20441;-62
2023/05/08 02:54:10;;;;;;;4.45;3.92;;;16.10;99.90;;;;;;5113653;28;20480;-62
2023/05/08 02:56:43;;;;;;;5.93;4.03;;;16.10;99.90;;;;;;5111788;28;20432;-62
2023/05/08 02:59:22;;;;;;;5.00;4.50;;;16.10;99.90;;;;;;5112994;28;20531;-63
2023/05/08 03:01:52;;;;;;;6.10;5.13;;;16.10;99.90;;;;;;5112715;28;20426;-63
2023/05/08 03:04:29;;;;;;;6.30;5.70;;;16.20;99.90;;;;;;5111182;28;20420;-63
2023/05/08 03:06:58;;;;;;;5.97;5.38;;;16.20;99.90;;;;;;5112798;28;20424;-63
2023/05/08 03:09:36;;;;;;;6.32;5.72;;;16.20;99.90;;;;;;5113456;28;20412;-62
2023/05/08 03:12:07;;;;;;;5.95;5.22;;;16.10;99.90;;;;;;5113777;28;20481;-62
2023/05/08 03:14:46;;;;;;;5.45;4.95;;;16.10;99.90;;;;;;5113773;28;20790;-63
2023/05/08 03:17:16;;;;;;;6.53;5.45;;;16.10;99.90;;;;;;5113930;28;20441;-62
2023/05/08 03:19:47;;;;;;;7.50;6.60;;;16.10;99.90;;;;;;5113426;28;20531;-63
2023/05/08 03:22:16;;;;;;;10.00;7.13;;;16.00;99.90;;;;;;5113713;28;20420;-62
2023/05/08 03:24:46;;;;;;;10.25;6.13;;;15.90;99.90;;;;;;5114072;28;20428;-62
2023/05/08 03:27:15;;;;;;;8.40;7.20;;;15.70;99.90;;;;;;5114746;28;20812;-63
2023/05/08 03:29:45;;;;;;;8.80;6.72;;;15.70;99.90;;;;;;5114605;28;20746;-62
2023/05/08 03:32:14;;;;;;;7.25;6.45;;;15.70;99.90;;;;;;5114471;28;20432;-62
2023/05/08 03:34:41;;;;;;;7.00;6.10;;;15.70;99.90;;;;;;5115246;28;20503;-62
2023/05/08 03:37:08;;;;;;;7.10;6.37;;;15.60;99.90;;;;;;5115249;28;20439;-63
2023/05/08 03:39:36;;;;;;;8.70;6.07;;;15.60;99.90;;;;;;5114772;28;20420;-63
2023/05/08 03:42:04;;;;;;;6.82;6.05;;;15.70;99.90;;;;;;5115166;28;21011;-63
2023/05/08 03:44:33;;;;;;;5.03;4.53;;;15.80;99.90;;;;;;5114155;28;20435;-63
2023/05/08 03:47:02;;;;;;;6.00;5.30;;;15.80;99.90;;;;;;5114713;28;20428;-63
2023/05/08 03:49:31;;;;;;;6.00;4.67;;;15.80;99.90;;;;;;5114597;28;20501;-63
2023/05/08 03:51:59;;;;;;;4.50;3.88;;;15.90;99.90;;;;;;5114590;28;20420;-63
2023/05/08 03:54:27;;;;;;;4.38;3.42;;;15.90;99.90;;;;;;5113398;28;20472;-63
2023/05/08 03:56:54;;;;;;;3.88;3.55;;;15.90;99.90;;;;;;5113960;28;20467;-63
2023/05/08 03:59:29;;;;;;;3.40;3.10;;;16.00;99.90;;;;;;5113598;28;20473;-63
2023/05/08 04:02:09;;;;;;;5.05;3.63;;;16.00;99.90;;;;;;5114414;28;20424;-62
2023/05/08 04:04:40;;;;;;;4.05;3.65;;;16.00;99.90;;;;;;5113527;28;20428;-62
2023/05/08 04:07:12;;;;;;;4.30;3.83;;;15.90;99.90;;;;;;5113936;28;20424;-62
2023/05/08 04:09:44;;;;;;;3.70;2.90;;;15.80;99.90;;;;;;5112735;28;20420;-63
2023/05/08 04:12:17;;;;;;;5.07;3.53;;;15.80;99.90;;;;;;5112488;28;20552;-62
2023/05/08 04:14:50;;;;;;;4.28;3.60;;;15.80;99.90;;;;;;5112523;28;20842;-62
2023/05/08 04:17:26;;;;;;;3.95;3.55;;;15.80;99.90;;;;;;5119020;28;20901;-62
2023/05/08 04:20:00;;;;;;;4.40;4.00;;;15.80;99.90;;;;;;5119351;28;20415;-62
2023/05/08 04:22:29;;;;;;;4.72;3.55;;;15.80;99.90;;;;;;5119923;28;20892;-63
2023/05/08 04:25:01;;;;;;;4.03;3.47;;;15.70;99.90;;;;;;5120929;28;20424;-63
2023/05/08 04:27:29;;;;;;;4.10;3.28;;;15.80;99.90;;;;;;5117418;28;20439;-62
2023/05/08 04:29:58;;;;;;;4.37;3.90;;;15.90;99.90;;;;;;5120185;28;20499;-61
2023/05/08 04:32:27;;;;;;;5.00;4.50;;;15.90;99.90;;;;;;5110446;28;20433;-61
2023/05/08 04:34:55;;;;;;;5.10;4.20;;;15.90;99.90;;;;;;5098504;28;20828;-62
2023/05/08 04:37:27;;;;;;;4.18;3.70;;;15.90;99.90;;;;;;5113805;28;20806;-62
2023/05/08 04:39:54;;;;;;;4.88;3.55;;;15.80;99.90;;;;;;5118592;28;20419;-60
2023/05/08 04:42:23;;;;;;;4.80;4.40;;;15.70;99.90;;;;;;5118137;28;20816;-60
2023/05/08 04:44:50;;;;;;;5.53;4.77;;;15.70;99.90;;;;;;5117153;28;20523;-62
2023/05/08 04:47:19;;;;;;;4.70;4.30;;;15.60;99.90;;;;;;5113052;28;20435;-60
2023/05/08 04:49:46;;;;;;;4.70;4.20;;;15.50;99.90;;;;;;5101599;28;20416;-62
2023/05/08 04:52:13;;;;;;;5.00;4.23;;;15.50;99.90;;;;;;5116167;28;20424;-62
2023/05/08 04:54:40;;;;;;;4.03;3.40;;;15.50;99.90;;;;;;5116924;28;20432;-62
2023/05/08 04:57:07;;;;;;;5.50;4.05;;;15.40;99.90;;;;;;5100570;28;20494;-61
2023/05/08 04:59:34;;;;;;;4.50;3.90;;;15.50;99.90;;;;;;5109926;28;20427;-61
2023/05/08 05:02:01;;;;;;;4.82;3.60;;;15.50;99.90;;;;;;5114647;28;20767;-61
2023/05/08 05:04:29;;;;;;;4.13;3.70;;;15.50;99.90;;;;;;5106004;28;20432;-61
2023/05/08 05:06:56;;;;;;;3.75;3.42;;;15.40;99.90;;;;;;5111249;28;20427;-61
2023/05/08 05:09:24;;;;;;;3.53;3.17;;;15.30;99.90;;;;;;5114536;28;20859;-62
2023/05/08 05:11:51;;;;;;;3.75;3.38;;;15.30;99.90;;;;;;5116491;28;20763;-60
2023/05/08 05:14:18;;;;;;;4.07;3.28;;;15.30;99.90;;;;;;5110405;28;20787;-62
2023/05/08 05:16:46;;;;;;;3.60;3.00;;;15.30;99.90;;;;;;5105984;28;20817;-60
2023/05/08 05:19:16;;;;;;;4.28;3.20;;;15.30;99.90;;;;;;5111066;27;20908;-60
2023/05/08 05:21:44;;;;;;;5.15;4.50;;;15.50;99.90;;;;;;5119257;28;20781;-61
2023/05/08 05:24:11;;;;;;;3.90;3.07;;;15.40;99.90;;;;;;5117304;28;20427;-60
2023/05/08 05:26:38;;;;;;;3.90;3.20;;;15.50;99.90;;;;;;5114490;28;20439;-60
2023/05/08 05:29:05;;;;;;;4.40;3.40;;;15.60;99.90;;;;;;5113133;28;20481;-61
2023/05/08 05:31:32;;;;;;;4.10;3.40;;;15.70;99.90;;;;;;5113085;28;20428;-62
2023/05/08 05:33:59;;;;;;;4.40;3.47;;;15.70;99.90;;;;;;5114522;28;20916;-62
2023/05/08 05:36:26;;;;;;;4.18;3.78;;;15.80;99.90;;;;;;5114032;28;20728;-62
2023/05/08 05:38:55;;;;;;;4.95;4.07;;;15.70;99.90;;;;;;5113998;28;20427;-62
2023/05/08 05:41:23;;;;;;;5.32;4.82;;;15.70;99.90;;;;;;5113513;28;21071;-62
2023/05/08 05:43:50;;;;;;;4.88;4.47;;;15.70;99.90;;;;;;5113198;28;20519;-62
2023/05/08 05:46:17;;;;;;;3.80;3.40;;;15.70;99.90;;;;;;5112854;28;20428;-62
2023/05/08 05:48:44;;;;;;;4.32;3.92;;;15.70;99.90;;;;;;5113527;28;20448;-61
2023/05/08 05:51:11;;;;;;;3.50;3.15;;;15.80;99.90;;;;;;5114828;28;20508;-62
2023/05/08 05:53:38;;;;;;;4.22;3.60;;;15.90;99.90;;;;;;5115259;28;20503;-62
2023/05/08 05:56:07;;;;;;;3.77;3.47;;;16.00;99.90;;;;;;5108865;28;20432;-62
2023/05/08 05:58:34;;;;;;;3.83;3.43;;;16.10;99.90;;;;;;5110759;28;20432;-63
2023/05/08 06:01:01;;;;;;;3.70;2.70;;;16.10;99.90;;;;;;5091895;28;20478;-62
2023/05/08 06:03:28;;;;;;;4.20;3.30;;;16.20;99.90;;;;;;5092649;28;20776;-64
2023/05/08 06:05:55;;;;;;;4.55;3.63;;;16.20;99.90;;;;;;5094671;28;20433;-62
2023/05/08 06:08:22;;;;;;;5.65;4.30;;;16.20;99.90;;;;;;5107956;28;20423;-63
2023/05/08 06:10:49;;;;;;;3.30;3.00;;;16.30;99.90;;;;;;5110611;28;20851;-60
2023/05/08 06:13:18;;;;;;;4.50;3.50;;;16.20;99.90;;;;;;5111314;28;20435;-63
2023/05/08 06:15:45;;;;;;;4.00;3.58;;;16.10;99.90;;;;;;5101929;28;20583;-61
2023/05/08 06:18:13;;;;;;;3.10;2.67;;;16.00;99.90;;;;;;5109719;28;21085;-62
2023/05/08 06:20:40;;;;;;;3.63;3.33;;;15.90;99.90;;;;;;5110219;28;20863;-60
2023/05/08 06:23:07;;;;;;;5.03;3.10;;;16.00;99.90;;;;;;5098911;28;20904;-61
2023/05/08 06:25:34;;;;;;;4.45;2.60;;;16.00;99.90;;;;;;5105389;28;20428;-59
2023/05/08 06:28:01;;;;;;;3.30;2.50;;;16.10;99.90;;;;;;5109985;28;20424;-58
2023/05/08 06:30:29;;;;;;;4.15;3.08;;;16.20;99.90;;;;;;5104633;28;20437;-59
2023/05/08 06:32:56;;;;;;;3.40;3.10;;;16.20;99.90;;;;;;5107905;28;20439;-58
2023/05/08 06:35:23;;;;;;;3.73;3.33;;;16.30;99.90;;;;;;5110240;28;20523;-63
2023/05/08 06:37:50;;;;;;;3.80;3.35;;;16.30;99.90;;;;;;5103352;28;20581;-59
2023/05/08 06:40:17;;;;;;;2.90;2.20;;;16.30;99.90;;;;;;5110729;28;20519;-59
2023/05/08 06:42:45;;;;;;;3.95;3.63;;;16.30;99.90;;;;;;5105409;28;20439;-58
2023/05/08 06:45:12;;;;;;;3.38;3.08;;;16.30;99.90;;;;;;5107131;28;20500;-58
2023/05/08 06:47:40;;;;;;;3.35;3.03;;;16.20;99.90;;;;;;5102418;28;20839;-58
2023/05/08 06:50:08;;;;;;;3.50;3.20;;;16.10;99.90;;;;;;5112647;28;20436;-58
2023/05/08 06:52:35;;;;;;;4.00;3.60;;;16.10;99.90;;;;;;5110844;28;20475;-59
2023/05/08 06:55:02;;;;;;;4.60;2.50;;;16.00;99.90;;;;;;5102675;28;20612;-59
2023/05/08 06:57:29;;;;;;;4.45;3.40;;;16.00;99.90;;;;;;5091517;28;20488;-59
2023/05/08 06:59:56;;;;;;;4.03;3.60;;;15.90;99.90;;;;;;5109229;28;20844;-60
2023/05/08 07:02:23;;;;;;;3.20;2.90;;;15.90;99.90;;;;;;5105639;28;21023;-59
2023/05/08 07:04:52;;;;;;;3.85;3.45;;;15.90;99.90;;;;;;5109142;28;20991;-59
2023/05/08 07:07:19;;;;;;;3.38;2.90;;;15.90;99.90;;;;;;5097734;28;20867;-58
2023/05/08 07:09:46;;;;;;;3.58;3.15;;;16.00;99.90;;;;;;5112829;28;20424;-58
2023/05/08 07:12:15;;;;;;;3.17;2.55;;;16.00;99.90;;;;;;5110390;28;20477;-56
2023/05/08 07:14:42;;;;;;;4.30;2.50;;;16.00;99.90;;;;;;5100652;28;20459;-57
2023/05/08 07:17:09;;;;;;;3.58;2.88;;;16.10;99.90;;;;;;5101186;28;20855;-56
2023/05/08 07:19:37;;;;;;;2.80;2.55;;;16.20;99.90;;;;;;5095559;28;20877;-55
2023/05/08 07:22:06;;;;;;;3.43;3.13;;;16.30;99.90;;;;;;5105079;28;20869;-57
2023/05/08 07:24:33;;;;;;;3.50;3.20;;;16.30;99.90;;;;;;5096651;28;20538;-57
2023/05/08 07:27:00;;;;;;;3.42;3.10;;;16.20;99.90;;;;;;5101849;28;20916;-54
2023/05/08 07:29:27;;;;;;;3.50;3.20;;;16.20;99.90;;;;;;5105587;28;20432;-56
2023/05/08 07:31:55;;;;;;;2.53;2.30;;;16.30;99.90;;;;;;5102897;28;20421;-54
2023/05/08 07:34:22;;;;;;;3.20;2.90;;;16.40;99.90;;;;;;5108324;28;20515;-57
2023/05/08 07:36:49;;;;;;;4.70;3.95;;;16.40;99.90;;;;;;5091344;28;20444;-57
2023/05/08 07:39:17;;;;;;;4.20;3.80;;;16.40;99.90;;;;;;5090061;28;20483;-57
2023/05/08 07:41:44;;;;;;;4.00;3.60;;;16.50;99.90;;;;;;5100287;28;20436;-58
2023/05/08 07:44:11;;;;;;;3.13;2.83;;;16.50;99.90;;;;;;5104945;28;20771;-58
2023/05/08 07:46:38;;;;;;;2.80;2.60;;;16.70;99.90;;;;;;5096544;28;20499;-58
2023/05/08 07:49:05;;;;;;;4.60;3.07;;;16.80;99.90;;;;;;5090331;28;20502;-58
2023/05/08 07:51:32;;;;;;;3.90;3.50;;;16.80;99.90;;;;;;5090022;28;20429;-58
2023/05/08 07:53:59;;;;;;;3.80;3.25;;;16.90;99.90;;;;;;5089638;28;20693;-58
2023/05/08 07:56:28;;;;;;;2.80;2.60;;;16.90;99.90;;;;;;5107756;28;20420;-58
2023/05/08 07:58:55;;;;;;;3.65;3.25;;;16.80;99.90;;;;;;5108459;28;20424;-58
2023/05/08 08:01:23;;;;;;;4.47;4.05;;;16.80;99.90;;;;;;5101763;28;20441;-57
2023/05/08 08:03:50;;;;;;;4.20;3.30;;;16.60;99.90;;;;;;5103315;28;20423;-57
2023/05/08 08:06:17;;;;;;;4.07;3.67;;;16.50;99.90;;;;;;5102408;28;20481;-58
2023/05/08 08:08:44;;;;;;;4.20;3.80;;;16.50;99.90;;;;;;5103914;28;20473;-58
2023/05/08 08:11:11;;;;;;;3.50;3.20;;;16.60;99.90;;;;;;5105670;28;20874;-58
2023/05/08 08:13:40;;;;;;;3.60;3.30;;;16.70;99.90;;;;;;5093128;28;20850;-58
2023/05/08 08:16:07;;;;;;;3.30;2.60;;;16.60;99.90;;;;;;5106099;28;20493;-58
2023/05/08 08:18:35;;;;;;;4.72;2.65;;;16.50;99.90;;;;;;5109182;28;20469;-60
2023/05/08 08:21:05;;;;;;;2.20;1.90;;;16.50;99.90;;;;;;5101151;28;20437;-59
2023/05/08 08:23:32;;;;;;;2.70;2.50;;;16.60;99.90;;;;;;5098434;28;20594;-59
2023/05/08 08:25:59;;;;;;;1.90;1.50;;;16.50;99.90;;;;;;5106791;28;20510;-58
2023/05/08 08:28:26;;;;;;;1.70;1.30;;;16.50;99.90;;;;;;5106132;28;20440;-58
2023/05/08 08:30:55;;;;;;;1.67;1.25;;;16.30;99.90;;;;;;5109145;28;20432;-58
2023/05/08 08:33:22;;;;;;;1.60;1.20;;;16.30;99.90;;;;;;5104606;28;20502;-59
2023/05/08 08:35:49;;;;;;;2.10;1.50;;;16.30;99.90;;;;;;5097832;28;20432;-59
2023/05/08 08:38:16;;;;;;;1.80;1.30;;;16.30;99.90;;;;;;5107437;28;20860;-59
2023/05/08 08:40:43;;;;;;;2.30;1.40;;;16.30;99.90;;;;;;5094260;28;20463;-59
2023/05/08 08:43:10;;;;;;;2.05;1.42;;;16.40;99.90;;;;;;5108998;28;20484;-59
2023/05/08 08:45:38;;;;;;;2.25;1.50;;;16.40;99.90;;;;;;5099903;28;20516;-58
2023/05/08 08:48:11;;;;;;;3.72;2.30;;;16.30;99.90;;;;;;5109257;28;20455;-59
2023/05/08 08:50:42;;;;;;;3.70;1.67;;;16.50;99.90;;;;;;5109495;28;20436;-60
2023/05/08 08:53:12;;;;;;;2.10;1.30;;;16.60;99.90;;;;;;5108790;28;20801;-59
2023/05/08 08:55:43;;;;;;;1.92;1.40;;;16.70;99.90;;;;;;5105456;28;20428;-60
2023/05/08 08:58:16;;;;;;;2.00;1.50;;;16.60;99.90;;;;;;5099343;28;20432;-59
2023/05/08 09:00:44;;;;;;;2.50;1.83;;;16.70;99.90;;;;;;5096797;28;20420;-59
2023/05/08 09:03:12;;;;;;;2.17;1.95;;;16.60;99.90;;;;;;5107443;28;20441;-59
2023/05/08 09:05:40;;;;;;;2.50;1.50;;;16.60;99.90;;;;;;5107296;28;20764;-60
2023/05/08 09:08:07;;;;;;;2.28;1.40;;;16.60;99.90;;;;;;5099511;28;20439;-59
2023/05/08 09:10:35;;;;;;;2.07;1.60;;;16.50;99.90;;;;;;5103701;28;20453;-59
2023/05/08 09:13:03;;;;;;;2.60;2.00;;;16.40;99.90;;;;;;5103135;28;20448;-58
2023/05/08 09:15:31;;;;;;;3.03;1.60;;;16.20;99.90;;;;;;5103196;28;20468;-59
2023/05/08 09:17:58;;;;;;;3.33;2.00;;;16.10;99.90;;;;;;5112933;28;20718;-59
2023/05/08 09:20:27;;;;;;;4.77;2.10;;;16.10;99.90;;;;;;5111299;28;20416;-57
2023/05/08 09:22:54;;;;;;;3.67;1.80;;;16.20;99.90;;;;;;5111475;28;20423;-58
2023/05/08 09:25:22;;;;;;;2.73;2.17;;;16.20;99.90;;;;;;5107203;28;20832;-58
2023/05/08 09:27:49;;;;;;;3.27;1.83;;;16.20;99.90;;;;;;5107071;28;20445;-58
2023/05/08 09:30:16;;;;;;;3.77;2.70;;;16.20;99.90;;;;;;5104361;28;20423;-58
2023/05/08 09:32:44;;;;;;;3.55;2.60;;;16.20;99.90;;;;;;5114070;28;20420;-58
2023/05/08 09:35:12;;;;;;;3.63;2.03;;;16.30;99.90;;;;;;5112828;28;20446;-58
2023/05/08 09:37:41;;;;;;;2.30;1.90;;;16.40;99.90;;;;;;5107106;28;20582;-59
2023/05/08 09:40:17;;;;;;;3.40;2.15;;;16.70;99.90;;;;;;5108404;28;20878;-59
2023/05/08 09:42:44;;;;;;;3.20;2.70;;;17.10;99.90;;;;;;5111710;28;20482;-59
2023/05/08 09:45:11;;;;;;;3.70;2.50;;;17.10;99.90;;;;;;5112496;28;20419;-59
2023/05/08 09:47:39;;;;;;;3.65;2.30;;;17.40;99.90;;;;;;5111130;28;20467;-59
2023/05/08 09:50:07;;;;;;;2.10;1.80;;;17.60;99.90;;;;;;5110841;28;20449;-59
2023/05/08 09:52:36;;;;;;;2.20;1.90;;;17.50;99.90;;;;;;5111209;28;20437;-59
2023/05/08 09:55:06;;;;;;;4.25;2.55;;;17.90;99.90;;;;;;5111431;28;20523;-59
2023/05/08 09:57:37;;;;;;;2.40;1.90;;;18.20;99.90;;;;;;5114082;28;20506;-58
2023/05/08 10:00:07;;;;;;;2.60;2.00;;;18.20;99.90;;;;;;5110509;28;20870;-58
2023/05/08 10:02:35;;;;;;;3.78;1.50;;;18.10;99.90;;;;;;5106181;28;20500;-58
2023/05/08 10:05:05;;;;;;;2.92;1.60;;;18.00;99.90;;;;;;5109960;28;20444;-58
2023/05/08 10:07:33;;;;;;;2.00;1.40;;;18.00;99.90;;;;;;5105212;28;20432;-58
2023/05/08 10:10:02;;;;;;;2.35;1.73;;;18.20;99.90;;;;;;5108866;28;20455;-58
2023/05/08 10:12:31;;;;;;;1.80;1.30;;;18.10;99.90;;;;;;5099769;28;20756;-59
2023/05/08 10:14:59;;;;;;;2.00;1.42;;;18.10;99.90;;;;;;5098371;28;20706;-59
2023/05/08 10:17:29;;;;;;;1.88;1.30;;;18.20;99.90;;;;;;5095380;28;20431;-59
2023/05/08 10:20:02;;;;;;;1.48;1.30;;;18.10;99.90;;;;;;5100553;28;20436;-59
2023/05/08 10:22:32;;;;;;;2.50;1.30;;;18.10;99.90;;;;;;5101401;28;20489;-59
2023/05/08 10:25:02;;;;;;;1.90;1.30;;;18.00;99.90;;;;;;5088884;28;20409;-59
2023/05/08 10:27:38;;;;;;;2.03;1.30;;;18.00;99.90;;;;;;5096305;28;20428;-58
2023/05/08 10:30:09;;;;;;;2.30;1.35;;;17.80;99.90;;;;;;5092642;28;20420;-58
2023/05/08 10:32:42;;;;;;;1.98;1.50;;;17.90;99.90;;;;;;5105533;28;20747;-58
2023/05/08 10:35:11;;;;;;;2.28;1.30;;;17.90;99.90;;;;;;5102898;28;20822;-60
2023/05/08 10:37:40;;;;;;;1.70;1.40;;;17.90;99.90;;;;;;5106721;28;20539;-59
2023/05/08 10:40:09;;;;;;;2.10;1.50;;;17.90;99.90;;;;;;5104459;28;20432;-59
2023/05/08 10:42:38;;;;;;;2.00;1.20;;;17.80;99.90;;;;;;5106431;28;20443;-59
2023/05/08 10:45:07;;;;;;;2.75;1.70;;;17.50;99.90;;;;;;5107198;28;20424;-59
2023/05/08 10:47:54;;;;;;;2.50;1.40;;;17.40;99.90;;;;;;5100611;28;20438;-60
2023/05/08 10:50:39;;;;;;;2.13;1.30;;;17.50;99.90;;;;;;5109908;28;20435;-60
2023/05/08 10:53:11;;;;;;;1.70;1.10;;;17.70;99.90;;;;;;5107236;28;20446;-60
2023/05/08 10:55:42;;;;;;;1.60;1.13;;;17.80;99.90;;;;;;5096477;28;20489;-61
2023/05/08 10:58:15;;;;;;;1.50;1.27;;;17.90;99.90;;;;;;5112317;28;21014;-60
2023/05/08 11:01:15;;;;;;;2.30;1.20;;;17.80;99.90;;;;;;5108220;28;20474;-60
2023/05/08 11:03:45;;;;;;;1.50;1.20;;;17.80;99.90;;;;;;5101591;28;20424;-60
2023/05/08 11:06:12;;;;;;;1.50;1.00;;;17.90;99.90;;;;;;5108868;28;20440;-60
2023/05/08 11:08:53;;;;;;;2.72;1.20;;;18.00;99.90;;;;;;5110590;28;20428;-60
2023/05/08 11:11:32;;;;;;;2.92;1.50;;;18.30;99.90;;;;;;5110446;28;20432;-59
2023/05/08 11:14:14;;;;;;;1.70;1.33;;;18.50;99.90;;;;;;5108041;28;20507;-60
2023/05/08 11:17:04;;;;;;;1.30;1.00;;;18.90;99.90;;;;;;5108742;28;20454;-60
2023/05/08 11:19:31;;;;;;;1.70;1.10;;;19.20;99.90;;;;;;5092147;28;20440;-60
2023/05/08 11:22:16;;;;;;;1.30;1.00;;;19.60;99.90;;;;;;5087926;28;20433;-58
2023/05/08 11:24:50;;;;;;;1.10;0.90;;;19.50;99.90;;;;;;5087540;28;20421;-59
2023/05/08 11:27:17;;;;;;;1.10;0.90;;;20.10;99.90;;;;;;5087015;28;20744;-60
2023/05/08 11:30:22;;;;;;;1.90;1.00;;;20.30;99.90;;;;;;5086860;28;20426;-59
2023/05/08 11:33:14;;;;;;;1.30;1.00;;;20.50;99.90;;;;;;5088969;28;20426;-59
2023/05/08 11:35:44;;;;;;;1.50;1.10;;;20.90;99.90;;;;;;5097391;28;20827;-59
2023/05/08 11:38:25;;;;;;;1.40;1.20;;;20.90;99.90;;;;;;5110008;28;20428;-59
2023/05/08 11:41:00;;;;;;;1.50;1.20;;;21.30;99.90;;;;;;5110027;28;20408;-58
2023/05/08 11:43:49;;;;;;;1.73;1.20;;;21.00;99.90;;;;;;5110115;28;20868;-58
2023/05/08 11:46:20;;;;;;;1.40;1.10;;;21.10;99.90;;;;;;5109130;28;20448;-59
2023/05/08 11:48:48;;;;;;;1.90;1.60;;;21.20;99.90;;;;;;5106983;28;20428;-59
2023/05/08 11:51:19;;;;;;;1.83;1.40;;;21.10;99.90;;;;;;5097078;28;20725;-60
2023/05/08 11:53:46;;;;;;;1.65;1.40;;;20.70;99.90;;;;;;5096519;28;20506;-60
2023/05/08 11:56:14;;;;;;;1.50;1.30;;;20.50;99.90;;;;;;5092703;28;20883;-59
2023/05/08 11:58:41;;;;;;;1.60;1.40;;;20.70;99.90;;;;;;5104195;28;20424;-59
2023/05/08 12:01:08;;;;;;;1.50;1.20;;;20.80;99.90;;;;;;5096931;28;20491;-60
2023/05/08 12:03:36;;;;;;;2.10;1.60;;;20.90;99.90;;;;;;5101608;28;20436;-61
2023/05/08 12:06:04;;;;;;;1.80;1.40;;;21.00;99.90;;;;;;5108360;28;20420;-61
2023/05/08 12:08:31;;;;;;;2.00;1.60;;;21.00;99.90;;;;;;5097718;28;20484;-60
2023/05/08 12:10:58;;;;;;;1.80;1.45;;;21.30;99.90;;;;;;5090441;28;21084;-61
2023/05/08 12:13:27;;;;;;;1.95;1.70;;;21.80;99.90;;;;;;5103227;28;20507;-61
2023/05/08 12:15:56;;;;;;;1.60;1.40;;;22.20;99.90;;;;;;5109106;28;20591;-60
2023/05/08 12:18:25;;;;;;;2.13;1.73;;;21.90;99.90;;;;;;5105986;28;20524;-61
2023/05/08 12:20:56;;;;;;;1.83;1.58;;;22.00;99.90;;;;;;5104960;28;20930;-61
2023/05/08 12:23:24;;;;;;;1.88;1.60;;;22.10;99.90;;;;;;5107339;28;20428;-61
2023/05/08 12:25:53;;;;;;;2.60;1.70;;;22.30;99.90;;;;;;5108697;28;20420;-61
2023/05/08 12:28:20;;;;;;;1.70;1.60;;;22.40;99.90;;;;;;5097849;28;20523;-59
2023/05/08 12:30:48;;;;;;;2.20;1.63;;;22.90;99.90;;;;;;5095801;28;20867;-59
2023/05/08 12:33:16;;;;;;;2.30;1.70;;;23.40;99.90;;;;;;5088187;28;20521;-60
2023/05/08 12:35:43;;;;;;;2.20;1.70;;;23.60;99.90;;;;;;5103466;28;20428;-59
2023/05/08 12:38:12;;;;;;;2.00;1.80;;;23.50;99.90;;;;;;5109475;28;20420;-59
2023/05/08 12:40:42;;;;;;;2.20;1.60;;;23.40;99.90;;;;;;5105945;28;20477;-59
2023/05/08 12:43:10;;;;;;;1.60;1.30;;;23.00;99.90;;;;;;5102093;28;20790;-59
2023/05/08 12:45:39;;;;;;;2.22;1.40;;;22.70;99.90;;;;;;5103689;28;20431;-59
2023/05/08 12:48:07;;;;;;;1.92;1.60;;;22.30;99.90;;;;;;5112232;28;20443;-59
2023/05/08 12:50:35;;;;;;;1.50;1.30;;;22.50;99.90;;;;;;5099335;28;20893;-60
2023/05/08 12:53:05;;;;;;;1.80;1.70;;;22.50;99.90;;;;;;5106031;28;20493;-59
2023/05/08 12:55:35;;;;;;;1.70;1.60;;;22.30;99.90;;;;;;5092209;28;20452;-59
2023/05/08 12:58:05;;;;;;;1.70;1.20;;;22.00;99.90;;;;;;5107610;28;20774;-60
2023/05/08 13:00:36;;;;;;;1.80;1.60;;;22.00;99.90;;;;;;5111951;28;20843;-61